Impacts TAF Board INFO
FOR SITUATIONAL AWARENESS. NOT TO BE USED FOR FLIGHT PLANNING PURPOSES.
IDs:

KDTW - Detroit Metro/Wayne, MI, US

Issued at 2324 UTC 24 Feb 2018
Updated at 2342 UTC 24 Feb 2018
Potential Impact None Slight Moderate High
Time<<25/12Z 25/13Z 25/14Z 25/15Z 25/16Z 25/17Z 25/18Z 25/19Z 25/20Z 25/21Z 25/22Z 25/23Z 26/00Z>>
Type PRVL PRVL PRVL PRVL PRVL PRVL PRVL PRVL PRVL PRVL PRVL PRVL PRVL
VIS >6 >6 >6 >6 >6 >6 >6 >6 >6 >6 >6 >6 >6
CIG 25 25 25 25 25 25 25 25 25 25 -- -- --
Cover BKN BKN BKN BKN BKN BKN BKN BKN BKN BKN SCT SCT SCT
FltCat MVFR MVFR MVFR MVFR MVFR MVFR MVFR MVFR MVFR MVFR VFR VFR VFR
WX -- -- -- -- -- -- -- -- -- -- -- -- --
WDir 250 250 250 240 240 240 240 240 240 240 240 240 240
WSpd 20 20 20 20 20 20 20 20 20 20 15 15 15
WGst 35 35 35 30 30 30 30 30 30 30 25 25 25

Raw TAF
KDTW 242324Z 2500/2606 07012KT P6SM OVC020
  FM250300 13015KT 2SM RA BR OVC007
  FM250700 13015KT 1SM RA BR OVC005 WS007/19045KT
  FM251000 25020G35KT P6SM SCT018 BKN025
  FM251500 24020G30KT P6SM BKN025
  FM252200 24015G25KT P6SM SCT035


METAR Board
Radar Display
Forecast Discussion

FOR SITUATIONAL AWARENESS. NOT TO BE USED FOR FLIGHT PLANNING PURPOSES.